Time;durP1;ratioP1;P1;durP2;ratioP2;P2;SDS_P1;SDS_P2;PMS_P1;PMS_P2;Temp;Humidity;BMP_temperature;BMP_pressure;BME280_temperature;BME280_humidity;BME280_pressure;Samples;Min_cycle;Max_cycle;Signal;HPM_P1;HPM_P2
2022/11/03 00:01:36;;;;;;;0.00;0.00;;;7.80;99.90;;;;;;5049883;28;20651;-67
2022/11/03 00:04:01;;;;;;;0.13;0.13;;;7.80;99.90;;;;;;5049259;28;20260;-67
2022/11/03 00:06:27;;;;;;;0.10;0.10;;;7.70;99.90;;;;;;5051327;28;20269;-66
2022/11/03 00:08:56;;;;;;;0.00;0.00;;;7.70;99.90;;;;;;5051265;28;20683;-67
2022/11/03 00:11:21;;;;;;;0.00;0.00;;;7.70;99.90;;;;;;5050795;28;20184;-67
2022/11/03 00:13:47;;;;;;;0.00;0.00;;;7.70;99.90;;;;;;5050557;28;20260;-67
2022/11/03 00:16:12;;;;;;;0.00;0.00;;;7.70;99.90;;;;;;5051147;28;20767;-67
2022/11/03 00:18:38;;;;;;;0.13;0.10;;;7.80;99.90;;;;;;5050841;28;20185;-67
2022/11/03 00:21:07;;;;;;;0.00;0.00;;;7.70;99.90;;;;;;5050396;28;20181;-67
2022/11/03 00:23:35;;;;;;;0.00;0.00;;;7.70;99.90;;;;;;5049940;28;20178;-67
2022/11/03 00:26:14;;;;;;;0.00;0.00;;;7.70;99.90;;;;;;5049192;28;20181;-67
2022/11/03 00:28:41;;;;;;;0.00;0.00;;;7.70;99.90;;;;;;5042343;28;20735;-67
2022/11/03 00:31:12;;;;;;;0.00;0.00;;;7.60;99.90;;;;;;5050709;28;20190;-67
2022/11/03 00:33:39;;;;;;;0.10;0.10;;;7.60;99.90;;;;;;5051291;28;20182;-67
2022/11/03 00:36:06;;;;;;;0.03;0.03;;;7.60;99.90;;;;;;5050913;28;20184;-67
2022/11/03 00:38:32;;;;;;;0.00;0.00;;;7.50;99.90;;;;;;5051556;28;20197;-67
2022/11/03 00:41:03;;;;;;;0.00;0.00;;;7.50;99.90;;;;;;5051589;28;20166;-67
2022/11/03 00:43:30;;;;;;;0.05;0.05;;;7.40;99.90;;;;;;5051243;28;20216;-67
2022/11/03 00:45:56;;;;;;;0.00;0.00;;;7.40;99.90;;;;;;5050939;28;20193;-67
2022/11/03 00:48:28;;;;;;;0.00;0.00;;;7.30;99.90;;;;;;5050800;28;20684;-67
2022/11/03 00:51:14;;;;;;;0.00;0.00;;;7.30;99.90;;;;;;5049730;28;20235;-67
2022/11/03 00:53:42;;;;;;;0.00;0.00;;;7.30;99.90;;;;;;5051089;28;20623;-67
2022/11/03 00:56:11;;;;;;;0.13;0.13;;;7.30;99.90;;;;;;5055031;28;20509;-67
2022/11/03 00:58:36;;;;;;;0.00;0.00;;;7.30;99.90;;;;;;5049583;28;20613;-67
2022/11/03 01:01:07;;;;;;;0.00;0.00;;;7.30;99.90;;;;;;5054082;28;20186;-67
2022/11/03 01:03:35;;;;;;;0.00;0.00;;;7.30;99.90;;;;;;5053415;28;20257;-67
2022/11/03 01:08:49;;;;;;;0.00;0.00;;;7.30;99.90;;;;;;5042879;28;20227;-67
2022/11/03 01:14:02;;;;;;;0.00;0.00;;;7.40;99.90;;;;;;5054052;28;20251;-67
2022/11/03 01:16:28;;;;;;;0.08;0.08;;;7.50;99.90;;;;;;5054098;28;20185;-67
2022/11/03 01:18:54;;;;;;;0.32;0.20;;;7.50;99.90;;;;;;5053878;28;20574;-67
2022/11/03 01:21:20;;;;;;;0.08;0.00;;;7.60;99.90;;;;;;5053945;28;20272;-67
2022/11/03 01:23:46;;;;;;;0.00;0.00;;;7.60;99.90;;;;;;5054100;28;20280;-67
2022/11/03 01:26:13;;;;;;;0.00;0.00;;;7.60;99.90;;;;;;5053699;28;20196;-67
2022/11/03 01:28:40;;;;;;;0.00;0.00;;;7.70;99.90;;;;;;5053295;28;20634;-67
2022/11/03 01:31:17;;;;;;;0.00;0.00;;;7.70;99.90;;;;;;5053783;28;20177;-67
2022/11/03 01:33:46;;;;;;;0.00;0.00;;;7.70;99.90;;;;;;5054394;28;20218;-67
2022/11/03 01:36:14;;;;;;;0.00;0.00;;;7.70;99.90;;;;;;5053895;28;20527;-67
2022/11/03 01:38:40;;;;;;;0.10;0.03;;;7.70;99.90;;;;;;5053400;28;20336;-67
2022/11/03 01:41:08;;;;;;;0.10;0.10;;;7.70;99.90;;;;;;5053824;28;20178;-67
2022/11/03 01:43:33;;;;;;;0.00;0.00;;;7.70;99.90;;;;;;5053621;28;20205;-67
2022/11/03 01:46:05;;;;;;;0.00;0.00;;;7.70;99.90;;;;;;5053441;28;20637;-67
2022/11/03 01:48:33;;;;;;;0.00;0.00;;;7.70;99.90;;;;;;5053185;28;20698;-67
2022/11/03 01:51:00;;;;;;;0.00;0.00;;;7.80;99.90;;;;;;5053431;28;20179;-67
2022/11/03 01:53:27;;;;;;;0.00;0.00;;;7.80;99.90;;;;;;5053036;28;20173;-67
2022/11/03 01:55:54;;;;;;;0.15;0.10;;;7.90;99.90;;;;;;5053322;28;20712;-67
2022/11/03 01:58:33;;;;;;;0.00;0.00;;;7.90;99.90;;;;;;5052743;28;20194;-67
2022/11/03 02:00:59;;;;;;;0.00;0.00;;;7.90;99.90;;;;;;5053171;28;20212;-67
2022/11/03 02:03:27;;;;;;;0.00;0.00;;;8.00;99.90;;;;;;5053211;28;20173;-67
2022/11/03 02:05:54;;;;;;;0.00;0.00;;;8.00;99.90;;;;;;5053318;28;20203;-67
2022/11/03 02:08:29;;;;;;;0.00;0.00;;;8.00;99.90;;;;;;5051849;28;20240;-67
2022/11/03 02:10:56;;;;;;;0.10;0.10;;;8.00;99.90;;;;;;5052804;28;20180;-67
2022/11/03 02:13:24;;;;;;;0.00;0.00;;;8.00;99.90;;;;;;5053223;28;20257;-67
2022/11/03 02:15:53;;;;;;;0.10;0.10;;;8.00;99.90;;;;;;5053406;28;20193;-67
2022/11/03 02:18:23;;;;;;;0.00;0.00;;;8.00;99.90;;;;;;5051413;28;20185;-67
2022/11/03 02:20:58;;;;;;;0.00;0.00;;;8.00;99.90;;;;;;5051086;28;20227;-67
2022/11/03 02:24:09;;;;;;;0.00;0.00;;;8.00;99.90;;;;;;5052732;28;20183;-67
2022/11/03 02:26:35;;;;;;;0.00;0.00;;;8.00;99.90;;;;;;5037792;28;20193;-67
2022/11/03 02:29:01;;;;;;;0.00;0.00;;;8.00;99.90;;;;;;5052446;28;20205;-67
2022/11/03 02:31:41;;;;;;;0.00;0.00;;;8.00;99.90;;;;;;5052560;28;20178;-67
2022/11/03 02:34:09;;;;;;;0.00;0.00;;;7.90;99.90;;;;;;5052979;28;20181;-67
2022/11/03 02:36:46;;;;;;;0.00;0.00;;;7.90;99.90;;;;;;5052987;28;20409;-67
2022/11/03 02:39:40;;;;;;;0.00;0.00;;;7.90;99.90;;;;;;5052010;28;20169;-67
2022/11/03 02:42:07;;;;;;;0.00;0.00;;;7.90;99.90;;;;;;5050439;28;20200;-67
2022/11/03 02:44:34;;;;;;;0.00;0.00;;;7.90;99.90;;;;;;5048141;28;20177;-67
2022/11/03 02:47:05;;;;;;;0.00;0.00;;;7.80;99.90;;;;;;5051936;28;20201;-67
2022/11/03 02:49:30;;;;;;;0.00;0.00;;;7.80;99.90;;;;;;5052614;28;20718;-67
2022/11/03 02:52:03;;;;;;;0.00;0.00;;;7.80;99.90;;;;;;5052674;28;20185;-67
2022/11/03 02:54:35;;;;;;;0.00;0.00;;;7.80;99.90;;;;;;5052646;28;20205;-67
2022/11/03 02:57:20;;;;;;;0.03;0.03;;;7.80;99.90;;;;;;5051183;28;20192;-67
2022/11/03 02:59:55;;;;;;;0.03;0.03;;;7.70;99.90;;;;;;5046491;28;20564;-67
2022/11/03 03:02:28;;;;;;;0.60;0.20;;;7.70;99.90;;;;;;5052022;28;20189;-67
2022/11/03 03:04:56;;;;;;;0.00;0.00;;;7.70;99.90;;;;;;5052011;28;20610;-67
2022/11/03 03:07:28;;;;;;;0.10;0.10;;;7.60;99.90;;;;;;5051779;28;20332;-67
2022/11/03 03:10:01;;;;;;;0.00;0.00;;;7.60;99.90;;;;;;5052308;28;20256;-67
2022/11/03 03:12:27;;;;;;;0.00;0.00;;;7.60;99.90;;;;;;5052335;28;20219;-67
2022/11/03 03:14:54;;;;;;;0.00;0.00;;;7.50;99.90;;;;;;5052083;28;20177;-67
2022/11/03 03:17:35;;;;;;;0.00;0.00;;;7.50;99.90;;;;;;5050998;28;20181;-67
2022/11/03 03:20:18;;;;;;;0.00;0.00;;;7.50;99.90;;;;;;5051684;28;20180;-67
2022/11/03 03:23:13;;;;;;;0.10;0.00;;;7.40;99.90;;;;;;5051654;28;20189;-67
2022/11/03 03:25:50;;;;;;;0.00;0.00;;;7.40;99.90;;;;;;5036308;28;20197;-67
2022/11/03 03:28:27;;;;;;;0.10;0.10;;;7.30;99.90;;;;;;5051591;28;20617;-67
2022/11/03 03:30:56;;;;;;;0.00;0.00;;;7.30;99.90;;;;;;5051552;28;20235;-67
2022/11/03 03:33:25;;;;;;;0.00;0.00;;;7.30;99.90;;;;;;5051662;28;20181;-67
2022/11/03 03:35:51;;;;;;;0.00;0.00;;;7.30;99.90;;;;;;5051588;28;20174;-67
2022/11/03 03:38:24;;;;;;;0.00;0.00;;;7.20;99.90;;;;;;5050973;28;20181;-67
2022/11/03 03:40:54;;;;;;;0.00;0.00;;;7.20;99.90;;;;;;5052103;28;20621;-67
2022/11/03 03:43:21;;;;;;;0.25;0.25;;;7.10;99.90;;;;;;5051723;28;20193;-67
2022/11/03 03:45:50;;;;;;;0.00;0.00;;;7.10;99.90;;;;;;5051511;28;20242;-67
2022/11/03 03:48:16;;;;;;;0.00;0.00;;;7.10;99.90;;;;;;5051269;28;20319;-67
2022/11/03 03:50:44;;;;;;;0.00;0.00;;;7.10;99.90;;;;;;5051795;28;20192;-67
2022/11/03 03:53:12;;;;;;;0.00;0.00;;;7.10;99.90;;;;;;5051222;28;20182;-67
2022/11/03 03:55:44;;;;;;;0.00;0.00;;;7.20;99.90;;;;;;5051784;28;20674;-67
2022/11/03 03:58:12;;;;;;;0.00;0.00;;;7.10;99.90;;;;;;5045251;28;20296;-67
2022/11/03 04:00:38;;;;;;;0.00;0.00;;;7.20;99.90;;;;;;5045063;28;20207;-68
2022/11/03 04:03:06;;;;;;;0.00;0.00;;;7.20;99.90;;;;;;5051064;28;20235;-67
2022/11/03 04:05:32;;;;;;;0.00;0.00;;;7.20;99.90;;;;;;5051338;28;20264;-68
2022/11/03 04:07:57;;;;;;;0.00;0.00;;;7.30;99.90;;;;;;5049220;28;20343;-68
2022/11/03 04:10:23;;;;;;;0.15;0.10;;;7.30;99.90;;;;;;5051597;28;20212;-67
2022/11/03 04:23:50;;;;;;;0.00;0.00;;;7.40;99.90;;;;;;5051292;28;20235;-67
2022/11/03 04:26:18;;;;;;;0.00;0.00;;;7.40;99.90;;;;;;5042374;28;20185;-67
2022/11/03 04:28:44;;;;;;;0.00;0.00;;;7.40;99.90;;;;;;5051511;28;20209;-67
2022/11/03 04:31:12;;;;;;;0.00;0.00;;;7.40;99.90;;;;;;5054672;28;20185;-68
2022/11/03 04:33:39;;;;;;;0.00;0.00;;;7.40;99.90;;;;;;5054763;28;20217;-68
2022/11/03 04:36:09;;;;;;;0.00;0.00;;;7.40;99.90;;;;;;5055081;28;20219;-67
2022/11/03 04:38:36;;;;;;;0.08;0.08;;;7.40;99.90;;;;;;5054895;28;20243;-67
2022/11/03 04:41:11;;;;;;;0.00;0.00;;;7.40;99.90;;;;;;5053791;28;20277;-68
2022/11/03 04:43:37;;;;;;;0.03;0.03;;;7.40;99.90;;;;;;5055467;28;20169;-67
2022/11/03 04:46:04;;;;;;;0.05;0.05;;;7.40;99.90;;;;;;5053760;28;20186;-66
2022/11/03 04:48:30;;;;;;;0.47;0.22;;;7.30;99.90;;;;;;5053455;28;20615;-68
2022/11/03 04:51:01;;;;;;;0.00;0.00;;;7.30;99.90;;;;;;5052549;28;20177;-67
2022/11/03 04:53:30;;;;;;;0.00;0.00;;;7.30;99.90;;;;;;5054494;28;20188;-66
2022/11/03 04:55:56;;;;;;;0.32;0.32;;;7.30;99.90;;;;;;5054733;28;20173;-66
2022/11/03 04:58:25;;;;;;;0.00;0.00;;;7.30;99.90;;;;;;5055411;28;20185;-65
2022/11/03 05:00:55;;;;;;;0.00;0.00;;;7.30;99.90;;;;;;5054633;28;20181;-66
2022/11/03 05:03:24;;;;;;;0.10;0.10;;;7.30;99.90;;;;;;5054483;28;20193;-66
2022/11/03 05:05:50;;;;;;;0.00;0.00;;;7.30;99.90;;;;;;5054551;28;20186;-67
2022/11/03 05:08:17;;;;;;;0.00;0.00;;;7.30;99.90;;;;;;5053989;28;20229;-66
2022/11/03 05:10:44;;;;;;;0.10;0.10;;;7.30;99.90;;;;;;5054047;28;20523;-64
2022/11/03 05:13:21;;;;;;;0.00;0.00;;;7.30;99.90;;;;;;5054312;28;20173;-68
2022/11/03 05:15:50;;;;;;;0.00;0.00;;;7.30;99.90;;;;;;5054763;28;20177;-68
2022/11/03 05:18:30;;;;;;;0.00;0.00;;;7.30;99.90;;;;;;5053324;28;20182;-68
2022/11/03 05:20:58;;;;;;;0.00;0.00;;;7.30;99.90;;;;;;5055809;28;20181;-66
2022/11/03 05:23:27;;;;;;;0.00;0.00;;;7.30;99.90;;;;;;5054867;28;20185;-66
2022/11/03 05:25:55;;;;;;;0.00;0.00;;;7.30;99.90;;;;;;5054768;28;20180;-66
2022/11/03 05:28:27;;;;;;;0.00;0.00;;;7.30;99.90;;;;;;5054715;28;20491;-66
2022/11/03 05:30:53;;;;;;;0.45;0.45;;;7.20;99.90;;;;;;5053560;28;20196;-66
2022/11/03 05:33:31;;;;;;;0.00;0.00;;;7.30;99.90;;;;;;5054541;28;20181;-67
2022/11/03 05:35:59;;;;;;;0.00;0.00;;;7.30;99.90;;;;;;5054127;28;20185;-66
2022/11/03 05:38:30;;;;;;;0.08;0.08;;;7.30;99.90;;;;;;5053774;28;20227;-67
2022/11/03 05:40:55;;;;;;;0.00;0.00;;;7.30;99.90;;;;;;5050188;28;20177;-67
2022/11/03 05:43:21;;;;;;;0.10;0.10;;;7.30;99.90;;;;;;5053270;28;20231;-67
2022/11/03 05:45:50;;;;;;;0.00;0.00;;;7.20;99.90;;;;;;5054437;28;20177;-67
2022/11/03 05:48:29;;;;;;;0.00;0.00;;;7.20;99.90;;;;;;5054364;28;20236;-67
2022/11/03 05:50:59;;;;;;;0.00;0.00;;;7.30;99.90;;;;;;5053146;28;20624;-67
2022/11/03 05:53:35;;;;;;;0.00;0.00;;;7.30;99.90;;;;;;5054408;28;20184;-67
2022/11/03 05:56:03;;;;;;;0.00;0.00;;;7.30;99.90;;;;;;5054403;28;20169;-66
2022/11/03 05:58:33;;;;;;;0.00;0.00;;;7.30;99.90;;;;;;5054202;28;20212;-67
2022/11/03 06:01:02;;;;;;;0.10;0.10;;;7.30;99.90;;;;;;5054436;28;20526;-67
2022/11/03 06:03:30;;;;;;;0.00;0.00;;;7.30;99.90;;;;;;5054156;28;20178;-67
2022/11/03 06:05:57;;;;;;;0.08;0.08;;;7.30;99.90;;;;;;5054061;28;20193;-67
2022/11/03 06:08:32;;;;;;;0.00;0.00;;;7.30;99.90;;;;;;5053782;28;20268;-67
2022/11/03 06:10:59;;;;;;;0.00;0.00;;;7.30;99.90;;;;;;5054112;28;20180;-67
2022/11/03 06:13:36;;;;;;;0.00;0.00;;;7.30;99.90;;;;;;5054108;28;20678;-67
2022/11/03 06:16:46;;;;;;;0.00;0.00;;;7.30;99.90;;;;;;5053977;28;20185;-67
2022/11/03 06:19:28;;;;;;;0.00;0.00;;;7.30;99.90;;;;;;5053744;28;20181;-67
2022/11/03 06:21:57;;;;;;;0.10;0.10;;;7.30;99.90;;;;;;5053877;28;20177;-67
2022/11/03 06:24:27;;;;;;;0.38;0.10;;;7.40;99.90;;;;;;5053841;28;20169;-67
2022/11/03 06:26:53;;;;;;;0.13;0.13;;;7.40;99.90;;;;;;5053786;28;20173;-67
2022/11/03 06:29:20;;;;;;;0.17;0.03;;;7.50;99.90;;;;;;5053758;28;20188;-67
2022/11/03 06:31:52;;;;;;;0.00;0.00;;;7.60;99.90;;;;;;5053599;28;20173;-67
2022/11/03 06:34:32;;;;;;;0.00;0.00;;;7.70;99.90;;;;;;5053464;28;20183;-67
2022/11/03 06:37:12;;;;;;;0.00;0.00;;;7.90;99.90;;;;;;5053731;28;20174;-67
2022/11/03 06:39:37;;;;;;;0.10;0.10;;;7.90;99.90;;;;;;5053682;28;20185;-67
2022/11/03 06:42:14;;;;;;;0.38;0.38;;;8.00;99.90;;;;;;5053562;28;20181;-67
2022/11/03 06:44:42;;;;;;;0.00;0.00;;;8.10;99.90;;;;;;5053533;28;20181;-67
2022/11/03 06:47:20;;;;;;;0.40;0.30;;;8.20;99.90;;;;;;5053335;28;20296;-67
2022/11/03 06:49:47;;;;;;;0.00;0.00;;;8.30;99.90;;;;;;5053713;28;20182;-67
2022/11/03 06:52:26;;;;;;;0.00;0.00;;;8.30;99.90;;;;;;5052477;28;20185;-67
2022/11/03 06:55:00;;;;;;;0.00;0.00;;;8.40;99.90;;;;;;5053512;28;20438;-68
2022/11/03 06:57:28;;;;;;;0.00;0.00;;;8.40;99.90;;;;;;5053456;28;20223;-67
2022/11/03 06:59:55;;;;;;;0.00;0.00;;;8.50;99.90;;;;;;5053286;28;20409;-67
2022/11/03 07:02:50;;;;;;;0.00;0.00;;;8.60;99.90;;;;;;5053187;28;20178;-67
2022/11/03 07:05:27;;;;;;;0.75;0.75;;;8.70;99.90;;;;;;5053039;28;20648;-67
2022/11/03 07:08:11;;;;;;;0.00;0.00;;;8.80;99.90;;;;;;5052821;28;20240;-67
2022/11/03 07:10:37;;;;;;;0.00;0.00;;;8.90;99.90;;;;;;5053082;28;20655;-67
2022/11/03 07:13:14;;;;;;;0.00;0.00;;;9.10;99.90;;;;;;5053032;28;20190;-67
2022/11/03 07:15:42;;;;;;;0.00;0.00;;;9.20;99.90;;;;;;5053135;28;20531;-67
2022/11/03 07:18:18;;;;;;;0.00;0.00;;;9.50;99.90;;;;;;5053035;28;20177;-67
2022/11/03 07:20:43;;;;;;;0.00;0.00;;;9.90;99.90;;;;;;5052978;28;20636;-67
2022/11/03 07:23:14;;;;;;;0.00;0.00;;;10.40;99.90;;;;;;5052898;28;20261;-67
2022/11/03 07:25:40;;;;;;;0.00;0.00;;;11.00;99.90;;;;;;5052928;28;20189;-67
2022/11/03 07:28:08;;;;;;;0.00;0.00;;;11.50;99.90;;;;;;5052619;28;20544;-67
2022/11/03 07:30:35;;;;;;;0.05;0.05;;;11.70;99.90;;;;;;5052760;28;20636;-67
2022/11/03 07:33:18;;;;;;;0.00;0.00;;;11.80;99.90;;;;;;5052711;28;20188;-67
2022/11/03 07:35:45;;;;;;;0.00;0.00;;;11.90;99.90;;;;;;5052771;28;20178;-67
2022/11/03 07:38:21;;;;;;;0.00;0.00;;;12.00;99.90;;;;;;5052546;28;20588;-67
2022/11/03 07:40:49;;;;;;;0.00;0.00;;;12.10;99.90;;;;;;5052703;28;20355;-67
2022/11/03 07:43:19;;;;;;;0.00;0.00;;;12.10;99.90;;;;;;5052405;28;20605;-67
2022/11/03 07:45:52;;;;;;;0.00;0.00;;;12.10;99.90;;;;;;5052618;28;20256;-67
2022/11/03 07:48:19;;;;;;;0.55;0.03;;;12.00;99.90;;;;;;5052236;28;20213;-67
2022/11/03 07:50:58;;;;;;;0.00;0.00;;;11.90;99.90;;;;;;5052567;28;20205;-68
2022/11/03 07:53:36;;;;;;;0.00;0.00;;;11.80;99.90;;;;;;5052343;28;20640;-67
2022/11/03 07:56:11;;;;;;;0.40;0.40;;;11.80;99.90;;;;;;5052394;28;20239;-67
2022/11/03 07:58:39;;;;;;;0.00;0.00;;;11.70;99.90;;;;;;5052442;28;20183;-67
2022/11/03 08:01:19;;;;;;;0.00;0.00;;;11.70;99.90;;;;;;5052413;28;20185;-68
2022/11/03 08:03:47;;;;;;;0.00;0.00;;;11.70;99.90;;;;;;5052184;28;20222;-67
2022/11/03 08:06:13;;;;;;;0.03;0.03;;;11.70;99.90;;;;;;5052274;28;20249;-67
2022/11/03 08:08:38;;;;;;;0.00;0.00;;;11.70;99.90;;;;;;5052043;28;20237;-67
2022/11/03 08:11:05;;;;;;;0.00;0.00;;;11.80;99.90;;;;;;5052207;28;20655;-68
2022/11/03 08:13:30;;;;;;;0.00;0.00;;;11.80;99.90;;;;;;5052164;28;20178;-68
2022/11/03 08:15:57;;;;;;;0.00;0.00;;;11.80;99.90;;;;;;5052181;28;20173;-68
2022/11/03 08:18:22;;;;;;;0.10;0.10;;;11.80;99.90;;;;;;5052104;28;20228;-67
2022/11/03 08:20:48;;;;;;;0.00;0.00;;;11.80;99.90;;;;;;5052146;28;20197;-67
2022/11/03 08:23:14;;;;;;;0.00;0.00;;;11.80;99.90;;;;;;5052054;28;20188;-67
2022/11/03 08:25:39;;;;;;;0.00;0.00;;;11.90;99.90;;;;;;5052025;28;20258;-67
2022/11/03 08:28:05;;;;;;;0.00;0.00;;;11.90;99.90;;;;;;5051972;28;20225;-67
2022/11/03 08:30:30;;;;;;;0.00;0.00;;;11.90;99.90;;;;;;5052023;28;20178;-67
2022/11/03 08:32:56;;;;;;;0.00;0.00;;;12.00;99.90;;;;;;5051964;28;20641;-67
2022/11/03 08:35:21;;;;;;;0.00;0.00;;;12.10;99.90;;;;;;5052005;28;20384;-68
2022/11/03 08:37:47;;;;;;;0.00;0.00;;;12.10;99.90;;;;;;5051999;28;20185;-68
2022/11/03 08:40:13;;;;;;;0.00;0.00;;;12.20;99.90;;;;;;5051909;28;21152;-68
2022/11/03 08:42:38;;;;;;;0.47;0.47;;;12.30;99.90;;;;;;5051841;28;20649;-68
2022/11/03 08:45:05;;;;;;;0.00;0.00;;;12.40;99.90;;;;;;5051874;28;20177;-67
2022/11/03 08:47:30;;;;;;;0.00;0.00;;;12.50;99.90;;;;;;5051777;28;20220;-67
2022/11/03 08:49:56;;;;;;;0.00;0.00;;;12.60;99.90;;;;;;5051818;28;20174;-67
2022/11/03 08:52:21;;;;;;;0.00;0.00;;;12.80;99.90;;;;;;5051910;28;20174;-67
2022/11/03 08:54:47;;;;;;;0.00;0.00;;;12.90;99.90;;;;;;5051920;28;20185;-68
2022/11/03 08:57:12;;;;;;;0.00;0.00;;;13.00;99.90;;;;;;5051660;28;21032;-67
2022/11/03 08:59:38;;;;;;;0.00;0.00;;;13.20;99.90;;;;;;5051925;28;20648;-68
2022/11/03 09:02:04;;;;;;;0.00;0.00;;;13.30;99.90;;;;;;5051746;28;20189;-68
2022/11/03 09:04:29;;;;;;;0.00;0.00;;;13.50;99.90;;;;;;5051653;28;20189;-68
2022/11/03 09:06:55;;;;;;;0.00;0.00;;;13.60;99.90;;;;;;5051401;28;20244;-68
2022/11/03 09:09:20;;;;;;;0.00;0.00;;;13.70;99.90;;;;;;5051616;28;20181;-67
2022/11/03 09:11:46;;;;;;;0.10;0.10;;;13.80;99.90;;;;;;5051802;28;20174;-68
2022/11/03 09:14:12;;;;;;;0.05;0.05;;;13.90;99.90;;;;;;5051706;28;20540;-68
2022/11/03 09:16:38;;;;;;;0.10;0.10;;;14.00;99.90;;;;;;5055083;28;20608;-68
2022/11/03 09:19:03;;;;;;;0.00;0.00;;;14.10;99.90;;;;;;5055207;28;20173;-68
2022/11/03 09:21:29;;;;;;;0.00;0.00;;;14.10;99.90;;;;;;5055110;28;20177;-68
2022/11/03 09:23:54;;;;;;;0.10;0.10;;;14.10;99.90;;;;;;5055121;28;20181;-68
2022/11/03 09:26:20;;;;;;;0.00;0.00;;;14.10;99.90;;;;;;5055067;28;20181;-67
2022/11/03 09:28:48;;;;;;;0.00;0.00;;;14.10;99.90;;;;;;5055049;28;20312;-68
2022/11/03 09:31:14;;;;;;;0.00;0.00;;;14.20;99.90;;;;;;5054886;28;20181;-67
2022/11/03 09:33:39;;;;;;;0.05;0.05;;;14.20;99.90;;;;;;5055044;28;20189;-68
2022/11/03 09:36:05;;;;;;;0.00;0.00;;;14.20;99.90;;;;;;5054887;28;20169;-67
2022/11/03 09:38:31;;;;;;;0.00;0.00;;;14.30;99.90;;;;;;5055042;28;20372;-68
2022/11/03 09:40:56;;;;;;;0.20;0.20;;;14.40;99.90;;;;;;5054803;28;20169;-68
2022/11/03 09:43:22;;;;;;;0.00;0.00;;;14.40;99.90;;;;;;5054836;28;20185;-67
2022/11/03 09:45:47;;;;;;;0.00;0.00;;;14.50;99.90;;;;;;5054887;28;20173;-68
2022/11/03 09:48:14;;;;;;;0.00;0.00;;;14.50;99.90;;;;;;5054561;28;20568;-68
2022/11/03 09:50:40;;;;;;;0.00;0.00;;;14.60;99.90;;;;;;5054667;28;20637;-67
2022/11/03 09:53:08;;;;;;;0.28;0.28;;;14.80;99.90;;;;;;5054756;28;20636;-68
2022/11/03 09:55:34;;;;;;;0.00;0.00;;;14.70;99.90;;;;;;5054519;28;20215;-68
2022/11/03 09:58:08;;;;;;;0.00;0.00;;;14.80;99.90;;;;;;5054565;28;20177;-68
2022/11/03 10:00:34;;;;;;;0.00;0.00;;;15.00;99.90;;;;;;5054553;28;20803;-68
2022/11/03 10:03:02;;;;;;;0.00;0.00;;;15.20;99.90;;;;;;5054432;28;20533;-68
2022/11/03 10:05:28;;;;;;;0.00;0.00;;;15.30;99.90;;;;;;5054394;28;20177;-68
2022/11/03 10:08:06;;;;;;;0.00;0.00;;;15.30;99.90;;;;;;5053996;28;20601;-68
2022/11/03 10:10:33;;;;;;;0.00;0.00;;;15.20;99.90;;;;;;5054461;28;20456;-68
2022/11/03 10:13:00;;;;;;;0.00;0.00;;;15.20;99.90;;;;;;5054195;28;20649;-67
2022/11/03 10:15:26;;;;;;;0.08;0.08;;;15.30;99.90;;;;;;5054289;28;20177;-68
2022/11/03 10:17:53;;;;;;;0.00;0.00;;;15.30;99.90;;;;;;5054222;28;20363;-68
2022/11/03 10:20:21;;;;;;;0.00;0.00;;;15.10;99.90;;;;;;5054076;28;20714;-68
2022/11/03 10:22:51;;;;;;;0.00;0.00;;;14.90;99.90;;;;;;5054123;28;20211;-68
2022/11/03 10:25:36;;;;;;;0.00;0.00;;;14.90;99.90;;;;;;5053890;28;20716;-68
2022/11/03 10:28:14;;;;;;;0.00;0.00;;;15.00;99.90;;;;;;5053953;28;20228;-68
2022/11/03 10:31:01;;;;;;;0.00;0.00;;;15.20;99.90;;;;;;5053919;28;20544;-68
2022/11/03 10:33:33;;;;;;;0.00;0.00;;;15.30;99.90;;;;;;5053767;28;20633;-68
2022/11/03 10:36:23;;;;;;;0.00;0.00;;;15.30;99.90;;;;;;5053923;28;20750;-68
2022/11/03 10:38:48;;;;;;;0.00;0.00;;;15.30;99.90;;;;;;5053828;28;20624;-68
2022/11/03 10:41:15;;;;;;;0.00;0.00;;;15.40;99.90;;;;;;5053647;28;20192;-67
2022/11/03 10:43:43;;;;;;;0.00;0.00;;;15.40;99.90;;;;;;5053721;28;20188;-68
2022/11/03 10:46:18;;;;;;;0.00;0.00;;;15.50;99.90;;;;;;5053580;28;20173;-67
2022/11/03 10:48:59;;;;;;;0.00;0.00;;;15.40;99.90;;;;;;5053421;28;20690;-68
2022/11/03 10:51:25;;;;;;;0.00;0.00;;;15.30;99.90;;;;;;5053543;28;20642;-68
2022/11/03 10:53:50;;;;;;;0.00;0.00;;;15.40;99.90;;;;;;5053406;28;20184;-68
2022/11/03 10:56:16;;;;;;;0.00;0.00;;;15.50;99.90;;;;;;5053213;28;20178;-68
2022/11/03 10:58:41;;;;;;;0.13;0.13;;;15.50;99.90;;;;;;5053398;28;20173;-69
2022/11/03 11:01:09;;;;;;;0.00;0.00;;;15.70;99.90;;;;;;5053252;28;20176;-69
2022/11/03 11:03:43;;;;;;;0.00;0.00;;;15.80;99.90;;;;;;5051910;28;20201;-69
2022/11/03 11:06:23;;;;;;;0.08;0.08;;;15.90;99.90;;;;;;5053142;28;20169;-69
2022/11/03 11:08:56;;;;;;;0.00;0.00;;;16.00;99.90;;;;;;5053108;28;20252;-68
2022/11/03 11:11:23;;;;;;;0.00;0.00;;;16.10;99.90;;;;;;5053118;28;20166;-68
2022/11/03 11:14:20;;;;;;;0.00;0.00;;;16.00;99.90;;;;;;5053181;28;20260;-68
2022/11/03 11:16:54;;;;;;;0.10;0.10;;;16.00;99.90;;;;;;5052999;28;20184;-69
2022/11/03 11:19:21;;;;;;;0.00;0.00;;;15.90;99.90;;;;;;5052932;28;20203;-69
2022/11/03 11:21:48;;;;;;;0.00;0.00;;;15.90;99.90;;;;;;5052991;28;20178;-68
2022/11/03 11:24:42;;;;;;;0.00;0.00;;;15.90;99.90;;;;;;5052760;28;20177;-68
2022/11/03 11:27:45;;;;;;;0.00;0.00;;;15.90;99.90;;;;;;5051450;28;20181;-68
2022/11/03 11:30:19;;;;;;;0.00;0.00;;;15.90;99.90;;;;;;5051471;28;20272;-68
2022/11/03 11:32:45;;;;;;;0.00;0.00;;;15.80;99.90;;;;;;5052792;28;20173;-69
2022/11/03 11:35:16;;;;;;;0.13;0.13;;;15.80;99.90;;;;;;5052694;28;20170;-68
2022/11/03 11:37:42;;;;;;;0.30;0.30;;;15.80;99.90;;;;;;5052348;28;20180;-68
2022/11/03 11:40:23;;;;;;;0.00;0.00;;;15.70;99.90;;;;;;5052613;28;20177;-68
2022/11/03 11:43:09;;;;;;;0.03;0.03;;;15.70;99.90;;;;;;5052638;28;20176;-68
2022/11/03 11:46:12;;;;;;;0.10;0.00;;;15.70;99.90;;;;;;5052393;28;20173;-67
2022/11/03 11:48:38;;;;;;;0.00;0.00;;;15.50;99.90;;;;;;5052307;28;20251;-68
2022/11/03 11:51:08;;;;;;;0.00;0.00;;;15.50;99.90;;;;;;5052326;28;20204;-68
2022/11/03 11:53:40;;;;;;;0.00;0.00;;;15.40;99.90;;;;;;5052404;28;20683;-69
2022/11/03 11:56:12;;;;;;;0.00;0.00;;;15.40;99.90;;;;;;5052273;28;20173;-68
2022/11/03 11:58:50;;;;;;;0.10;0.10;;;15.30;99.90;;;;;;5050902;28;20186;-68
2022/11/03 12:01:28;;;;;;;0.20;0.10;;;15.30;99.90;;;;;;5052095;28;20185;-67
2022/11/03 12:04:04;;;;;;;0.00;0.00;;;15.40;99.90;;;;;;5052231;28;20565;-68
2022/11/03 12:06:38;;;;;;;0.00;0.00;;;15.40;99.90;;;;;;5052065;28;20169;-68
2022/11/03 12:09:11;;;;;;;0.00;0.00;;;15.40;99.90;;;;;;5052103;28;20728;-68
2022/11/03 12:11:48;;;;;;;0.00;0.00;;;15.40;99.90;;;;;;5052122;28;20584;-68
2022/11/03 12:14:33;;;;;;;0.00;0.00;;;15.50;99.90;;;;;;5050816;28;20554;-67
2022/11/03 12:17:19;;;;;;;0.00;0.00;;;15.50;99.90;;;;;;5052036;28;20174;-67
2022/11/03 12:19:49;;;;;;;0.00;0.00;;;15.50;99.90;;;;;;5051995;28;20231;-68
2022/11/03 12:22:23;;;;;;;0.00;0.00;;;15.50;99.90;;;;;;5051899;28;20188;-68
2022/11/03 12:24:53;;;;;;;0.00;0.00;;;15.50;99.90;;;;;;5052385;28;20218;-67
2022/11/03 12:27:25;;;;;;;0.00;0.00;;;15.40;99.90;;;;;;5051842;28;20571;-68
2022/11/03 12:29:59;;;;;;;0.00;0.00;;;15.50;99.90;;;;;;5052246;28;20185;-68
2022/11/03 12:32:25;;;;;;;0.10;0.10;;;15.50;99.90;;;;;;5052094;28;20223;-68
2022/11/03 12:34:52;;;;;;;0.20;0.20;;;15.50;99.90;;;;;;5052107;28;20173;-68
2022/11/03 12:37:18;;;;;;;0.28;0.10;;;15.40;99.90;;;;;;5051726;28;20268;-67
2022/11/03 12:39:43;;;;;;;0.00;0.00;;;15.40;99.90;;;;;;5051779;28;20582;-68
2022/11/03 12:42:09;;;;;;;0.10;0.10;;;15.30;99.90;;;;;;5051870;28;20174;-68
2022/11/03 12:44:34;;;;;;;0.05;0.05;;;15.20;99.90;;;;;;5050375;28;20200;-68
2022/11/03 12:47:00;;;;;;;0.00;0.00;;;15.20;99.90;;;;;;5051738;28;20652;-68
2022/11/03 12:49:26;;;;;;;0.00;0.00;;;15.10;99.90;;;;;;5052178;28;20205;-68
2022/11/03 12:51:52;;;;;;;0.10;0.10;;;15.00;99.90;;;;;;5055793;28;20185;-68
2022/11/03 12:54:17;;;;;;;0.00;0.00;;;14.90;99.90;;;;;;5055538;28;20181;-68
2022/11/03 12:56:43;;;;;;;0.00;0.00;;;14.90;99.90;;;;;;5055585;28;20177;-68
2022/11/03 12:59:09;;;;;;;0.00;0.00;;;15.00;99.90;;;;;;5055540;28;20647;-68
2022/11/03 13:01:34;;;;;;;0.00;0.00;;;15.00;99.90;;;;;;5055448;28;20267;-69
2022/11/03 13:04:00;;;;;;;0.13;0.13;;;15.00;99.90;;;;;;5055440;28;20181;-69
2022/11/03 13:06:25;;;;;;;0.00;0.00;;;15.10;99.90;;;;;;5055160;28;20181;-69
2022/11/03 13:08:51;;;;;;;0.00;0.00;;;15.10;99.90;;;;;;5055228;28;20220;-69
2022/11/03 13:14:03;;;;;;;0.00;0.00;;;15.10;99.90;;;;;;5055334;28;20654;-69
2022/11/03 13:16:29;;;;;;;0.00;0.00;;;15.10;99.90;;;;;;5055312;28;20181;-69
2022/11/03 13:18:54;;;;;;;0.00;0.00;;;15.10;99.90;;;;;;5055161;28;20439;-69
2022/11/03 13:21:20;;;;;;;0.10;0.10;;;15.10;99.90;;;;;;5055113;28;20177;-67
2022/11/03 13:23:45;;;;;;;0.00;0.00;;;15.10;99.90;;;;;;5055126;28;20173;-67
2022/11/03 13:26:11;;;;;;;0.00;0.00;;;15.00;99.90;;;;;;5055049;28;20211;-68
2022/11/03 13:28:37;;;;;;;0.00;0.00;;;14.90;99.90;;;;;;5054950;28;20219;-68